createdAt,value
2018-12-16T00:02:03.184Z,51.23
2018-12-16T00:04:33.875Z,80.40
2018-12-16T00:07:06.532Z,59.47
2018-12-16T00:09:45.164Z,58.50
2018-12-16T00:12:22.265Z,54.20
2018-12-16T00:14:52.866Z,50.33
2018-12-16T00:17:24.692Z,52.80
2018-12-16T00:20:00.465Z,68.37
2018-12-16T00:22:30.639Z,67.13
2018-12-16T00:25:03.406Z,156.00
2018-12-16T00:27:35.924Z,113.80
2018-12-16T00:30:07.945Z,189.97
2018-12-16T00:32:40.344Z,120.70
2018-12-16T00:35:16.251Z,90.97
2018-12-16T00:37:46.185Z,117.60
2018-12-16T00:40:16.756Z,83.03
2018-12-16T00:42:52.727Z,156.37
2018-12-16T00:45:26.445Z,208.23
2018-12-16T00:48:04.256Z,66.23
2018-12-16T00:50:36.987Z,56.80
2018-12-16T00:53:12.016Z,62.17
2018-12-16T00:55:43.744Z,85.37
2018-12-16T00:58:16.404Z,107.67
2018-12-16T01:00:49.076Z,162.30
2018-12-16T01:03:21.766Z,98.93
2018-12-16T01:05:53.365Z,198.50
2018-12-16T01:08:26.854Z,93.17
2018-12-16T01:10:56.979Z,178.63
2018-12-16T01:13:31.706Z,87.40
2018-12-16T01:16:03.506Z,111.83
2018-12-16T01:18:39.346Z,134.67
2018-12-16T01:21:12.394Z,60.73
2018-12-16T01:23:44.930Z,81.00
2018-12-16T01:26:21.725Z,60.30
2018-12-16T01:28:54.386Z,57.53
2018-12-16T01:31:30.285Z,59.27
2018-12-16T01:34:06.144Z,56.47
2018-12-16T01:36:41.765Z,64.80
2018-12-16T01:39:13.705Z,46.33
2018-12-16T01:41:45.307Z,48.10
2018-12-16T01:44:16.164Z,51.87
2018-12-16T01:46:46.865Z,52.23
2018-12-16T01:49:17.265Z,55.00
2018-12-16T01:51:49.194Z,42.43
2018-12-16T01:54:21.008Z,47.03
2018-12-16T01:56:53.964Z,45.03
2018-12-16T01:59:25.514Z,45.97
2018-12-16T02:01:58.735Z,48.37
2018-12-16T02:04:30.333Z,43.40
2018-12-16T02:07:10.393Z,51.77
2018-12-16T02:09:40.294Z,43.40
2018-12-16T02:12:13.034Z,44.67
2018-12-16T02:14:45.513Z,47.57
2018-12-16T02:29:47.864Z,41.03
2018-12-16T02:32:20.376Z,41.50
2018-12-16T02:34:52.626Z,42.43
2018-12-16T02:37:24.886Z,42.43
2018-12-16T02:40:00.534Z,44.63
2018-12-16T02:42:32.323Z,39.77
2018-12-16T02:45:08.103Z,41.60
2018-12-16T02:47:47.154Z,40.37
2018-12-16T02:50:23.504Z,41.10
2018-12-16T02:52:55.585Z,43.67
2018-12-16T02:55:27.265Z,41.63
2018-12-16T02:57:55.780Z,46.23
2018-12-16T03:00:24.115Z,43.13
2018-12-16T03:02:52.533Z,43.63
2018-12-16T03:05:21.146Z,39.53
2018-12-16T03:07:49.682Z,41.93
2018-12-16T03:10:18.037Z,42.87
2018-12-16T03:12:46.639Z,44.80
2018-12-16T03:15:15.090Z,40.73
2018-12-16T03:17:43.576Z,41.97
2018-12-16T03:20:12.046Z,41.17
2018-12-16T03:22:40.504Z,41.43
2018-12-16T03:25:09.056Z,42.07
2018-12-16T03:27:37.393Z,45.50
2018-12-16T03:30:06.770Z,41.17
2018-12-16T03:32:35.381Z,46.67
2018-12-16T03:35:03.921Z,43.43
2018-12-16T03:37:32.421Z,41.90
2018-12-16T03:40:00.912Z,43.73
2018-12-16T03:42:29.335Z,40.77
2018-12-16T03:44:57.799Z,45.70
2018-12-16T03:47:26.263Z,45.60
2018-12-16T03:49:54.792Z,44.17
2018-12-16T03:52:23.270Z,44.63
2018-12-16T03:54:52.128Z,51.00
2018-12-16T03:57:20.591Z,48.87
2018-12-16T03:59:48.993Z,41.43
2018-12-16T04:02:17.485Z,44.73
2018-12-16T04:04:46.008Z,44.90
2018-12-16T04:07:14.464Z,46.83
2018-12-16T04:09:42.947Z,46.83
2018-12-16T04:12:11.436Z,47.40
2018-12-16T04:14:41.348Z,46.80
2018-12-16T04:17:10.041Z,42.93
2018-12-16T04:19:38.367Z,39.63
2018-12-16T04:22:06.750Z,42.40
2018-12-16T04:24:35.134Z,41.17
2018-12-16T04:27:03.532Z,40.20
2018-12-16T04:29:31.864Z,47.23
2018-12-16T04:32:00.521Z,38.77
2018-12-16T04:34:28.951Z,48.13
2018-12-16T04:36:57.386Z,44.00
2018-12-16T04:39:25.819Z,57.07
2018-12-16T04:41:54.398Z,56.90
2018-12-16T04:44:22.953Z,49.37
2018-12-16T04:46:51.378Z,49.27
2018-12-16T04:49:19.931Z,56.37
2018-12-16T04:51:48.420Z,57.80
2018-12-16T04:54:17.007Z,58.77
2018-12-16T04:56:45.485Z,65.53
2018-12-16T04:59:13.928Z,64.33
2018-12-16T05:01:42.422Z,59.33
2018-12-16T05:04:11.338Z,59.87
2018-12-16T05:06:40.013Z,57.80
2018-12-16T05:09:08.506Z,56.63
2018-12-16T05:11:36.940Z,59.03
2018-12-16T05:14:05.430Z,49.33
2018-12-16T05:16:33.886Z,49.13
2018-12-16T05:19:02.329Z,51.07
2018-12-16T05:21:30.805Z,48.07
2018-12-16T05:23:59.169Z,52.43
2018-12-16T05:26:27.702Z,51.30
2018-12-16T05:28:56.112Z,51.47
2018-12-16T05:31:24.420Z,52.90
2018-12-16T05:33:52.897Z,49.53
2018-12-16T05:36:21.488Z,52.03
2018-12-16T05:38:50.054Z,52.40
2018-12-16T05:41:18.569Z,56.73
2018-12-16T05:43:46.888Z,51.67
2018-12-16T05:46:15.408Z,48.13
2018-12-16T05:48:43.831Z,49.40
2018-12-16T05:51:12.292Z,47.13
2018-12-16T05:53:40.908Z,49.70
2018-12-16T05:56:09.268Z,41.97
2018-12-16T05:58:37.624Z,47.27
2018-12-16T06:01:06.368Z,49.60
2018-12-16T06:03:34.948Z,46.80
2018-12-16T06:06:03.460Z,47.40
2018-12-16T06:08:32.038Z,43.13
2018-12-16T06:11:00.564Z,40.17
2018-12-16T06:13:28.946Z,44.17
2018-12-16T06:15:57.386Z,44.10
2018-12-16T06:18:25.850Z,42.43
2018-12-16T06:20:54.321Z,44.43
2018-12-16T06:23:22.831Z,55.13
2018-12-16T06:25:51.211Z,46.13
2018-12-16T06:28:19.690Z,42.43
2018-12-16T06:30:49.476Z,47.27
2018-12-16T06:33:17.893Z,46.03
2018-12-16T06:35:46.429Z,48.63
2018-12-16T06:38:14.705Z,47.77
2018-12-16T06:40:43.728Z,55.87
2018-12-16T06:43:12.221Z,53.93
2018-12-16T06:45:40.776Z,46.30
2018-12-16T06:48:09.309Z,57.97
2018-12-16T06:50:37.795Z,59.50
2018-12-16T06:53:06.240Z,48.00
2018-12-16T06:55:35.558Z,54.00
2018-12-16T06:58:03.949Z,66.43
2018-12-16T07:00:32.449Z,68.10
2018-12-16T07:03:00.969Z,73.67
2018-12-16T07:05:29.536Z,90.43
2018-12-16T07:07:58.050Z,94.23
2018-12-16T07:10:26.599Z,86.80
2018-12-16T07:12:54.883Z,137.70
2018-12-16T07:15:23.465Z,126.23
2018-12-16T07:17:52.015Z,90.50
2018-12-16T07:20:20.388Z,106.93
2018-12-16T07:22:48.741Z,121.00
2018-12-16T07:25:17.351Z,94.93
2018-12-16T07:27:47.007Z,90.27
2018-12-16T07:33:00.848Z,81.03
2018-12-16T07:35:30.651Z,97.43
2018-12-16T07:37:59.068Z,101.20
2018-12-16T07:40:27.548Z,112.30
2018-12-16T07:42:56.106Z,122.80
2018-12-16T07:45:25.656Z,153.83
2018-12-16T07:47:54.120Z,170.10
2018-12-16T07:50:22.631Z,173.80
2018-12-16T07:52:51.093Z,201.30
2018-12-16T07:55:19.553Z,175.00
2018-12-16T07:57:47.932Z,178.13
2018-12-16T08:00:16.463Z,203.57
2018-12-16T08:02:45.066Z,157.67
2018-12-16T08:05:13.596Z,156.50
2018-12-16T08:07:42.021Z,125.67
2018-12-16T08:10:10.409Z,155.87
2018-12-16T08:12:38.811Z,191.97
2018-12-16T08:15:07.391Z,154.73
2018-12-16T08:17:35.945Z,160.27
2018-12-16T08:20:04.514Z,199.40
2018-12-16T08:22:32.994Z,223.87
2018-12-16T08:25:01.602Z,194.93
2018-12-16T08:27:30.151Z,168.00
2018-12-16T08:29:58.746Z,180.20
2018-12-16T08:32:27.267Z,167.90
2018-12-16T08:34:55.765Z,166.97
2018-12-16T08:37:24.624Z,221.40
2018-12-16T08:39:53.062Z,172.23
2018-12-16T08:42:21.595Z,122.13
2018-12-16T08:44:50.110Z,128.20
2018-12-16T08:47:18.541Z,146.90
2018-12-16T08:49:47.244Z,170.43
2018-12-16T08:52:15.642Z,161.30
2018-12-16T08:54:44.262Z,162.50
2018-12-16T08:57:12.820Z,157.23
2018-12-16T08:59:41.210Z,116.00
2018-12-16T09:02:09.785Z,121.87
2018-12-16T09:04:38.374Z,95.63
2018-12-16T09:07:06.861Z,90.60
2018-12-16T09:09:35.587Z,102.40
2018-12-16T09:12:04.171Z,114.47
2018-12-16T09:14:32.894Z,117.43
2018-12-16T09:17:07.231Z,135.33
2018-12-16T09:19:38.932Z,115.77
2018-12-16T09:22:14.081Z,106.23
2018-12-16T09:24:50.428Z,98.53
2018-12-16T09:27:27.290Z,75.57
2018-12-16T09:29:59.041Z,57.37
2018-12-16T09:32:34.634Z,47.90
2018-12-16T09:35:06.741Z,45.67
2018-12-16T09:37:46.549Z,48.20
2018-12-16T09:40:17.228Z,51.27
2018-12-16T09:42:47.120Z,52.50
2018-12-16T09:45:22.454Z,57.90
2018-12-16T09:47:58.475Z,56.00
2018-12-16T09:50:35.658Z,55.67
2018-12-16T09:53:06.868Z,49.93
2018-12-16T09:56:20.353Z,51.80
2018-12-16T10:05:34.777Z,60.23
2018-12-16T10:08:12.016Z,47.00
2018-12-16T10:10:42.763Z,50.53
2018-12-16T10:13:25.088Z,46.30
2018-12-16T10:16:00.970Z,52.27
2018-12-16T10:18:38.913Z,47.23
2018-12-16T10:21:14.569Z,44.63
2018-12-16T10:23:43.123Z,48.17
2018-12-16T10:26:14.593Z,43.50
2018-12-16T10:28:43.089Z,59.30
2018-12-16T10:31:11.584Z,61.80
2018-12-16T10:33:41.323Z,59.53
2018-12-16T10:36:10.937Z,60.90
2018-12-16T10:38:39.409Z,58.97
2018-12-16T10:41:19.667Z,57.23
2018-12-16T10:43:51.385Z,57.63
2018-12-16T10:46:26.012Z,52.57
2018-12-16T10:51:28.109Z,51.13
2018-12-16T10:54:01.185Z,51.70
2018-12-16T10:56:39.094Z,50.40
2018-12-16T10:59:07.516Z,51.00
2018-12-16T11:01:36.142Z,45.70
2018-12-16T11:04:05.256Z,47.10
2018-12-16T11:06:33.887Z,49.27
2018-12-16T11:09:02.501Z,53.57
2018-12-16T11:11:31.051Z,73.47
2018-12-16T11:14:00.762Z,54.93
2018-12-16T11:16:29.405Z,56.33
2018-12-16T11:19:02.386Z,52.00
2018-12-16T11:21:33.946Z,51.07
2018-12-16T11:24:08.985Z,49.97
2018-12-16T11:26:37.541Z,51.13
2018-12-16T11:29:06.019Z,47.17
2018-12-16T11:31:34.633Z,50.27
2018-12-16T11:34:13.849Z,53.60
2018-12-16T11:41:07.390Z,46.60
2018-12-16T11:46:29.165Z,51.40
2018-12-16T11:49:07.787Z,51.40
2018-12-16T11:51:46.717Z,45.43
2018-12-16T11:54:32.850Z,41.50
2018-12-16T11:57:08.588Z,40.80
2018-12-16T11:59:40.273Z,42.07
2018-12-16T12:02:25.004Z,42.30
2018-12-16T12:05:09.678Z,42.97
2018-12-16T12:11:11.357Z,36.87
2018-12-16T12:14:02.085Z,37.83
2018-12-16T12:41:21.873Z,52.77
2018-12-16T12:43:50.488Z,49.13
2018-12-16T12:46:19.011Z,54.73
2018-12-16T12:48:47.404Z,67.87
2018-12-16T12:51:16.000Z,64.60
2018-12-16T12:53:44.445Z,56.37
2018-12-16T12:56:13.927Z,47.60
2018-12-16T12:58:42.445Z,45.17
2018-12-16T13:01:10.890Z,44.37
2018-12-16T13:03:39.260Z,46.77
2018-12-16T13:06:07.766Z,53.80
2018-12-16T13:08:36.238Z,66.90
2018-12-16T13:11:04.676Z,53.17
2018-12-16T13:13:33.138Z,58.17
2018-12-16T13:16:01.700Z,53.37
2018-12-16T13:18:30.621Z,50.80
2018-12-16T13:21:00.017Z,52.87
2018-12-16T13:23:28.494Z,49.00
2018-12-16T13:26:01.168Z,44.87
2018-12-16T13:28:29.718Z,48.93
2018-12-16T13:30:58.234Z,56.27
2018-12-16T13:33:26.910Z,62.37
2018-12-16T13:35:56.118Z,55.33
2018-12-16T13:38:24.708Z,51.17
2018-12-16T13:40:56.335Z,53.07
2018-12-16T13:43:25.192Z,60.33
2018-12-16T13:45:53.699Z,65.03
2018-12-16T13:48:23.242Z,61.17
2018-12-16T13:50:51.791Z,57.20
2018-12-16T13:53:20.382Z,55.00
2018-12-16T13:55:48.993Z,46.90
2018-12-16T13:58:18.085Z,46.77
2018-12-16T14:00:46.675Z,56.33
2018-12-16T14:03:15.251Z,49.27
2018-12-16T14:05:46.749Z,53.07
2018-12-16T14:08:14.607Z,52.27
2018-12-16T14:10:47.363Z,54.80
2018-12-16T14:13:15.977Z,58.03
2018-12-16T14:15:52.118Z,61.60
2018-12-16T14:18:16.375Z,55.63
2018-12-16T14:20:44.915Z,56.20
2018-12-16T14:23:21.186Z,56.95
2018-12-16T14:25:58.264Z,53.77
2018-12-16T14:28:27.031Z,53.43
2018-12-16T14:30:55.557Z,52.80
2018-12-16T14:33:24.024Z,53.57
2018-12-16T14:38:24.604Z,56.23
2018-12-16T14:40:53.116Z,57.80
2018-12-16T14:43:21.588Z,61.77
2018-12-16T14:45:50.174Z,62.27
2018-12-16T14:48:18.737Z,57.77
2018-12-16T14:50:47.262Z,63.20
2018-12-16T14:53:16.065Z,65.27
2018-12-16T14:55:44.626Z,62.27
2018-12-16T14:58:13.287Z,69.50
2018-12-16T15:00:41.838Z,76.33
2018-12-16T15:03:10.944Z,65.17
2018-12-16T15:05:39.504Z,71.70
2018-12-16T15:08:10.123Z,72.07
2018-12-16T15:10:47.775Z,82.37
2018-12-16T15:13:19.703Z,56.93
2018-12-16T15:15:52.558Z,57.83
2018-12-16T15:18:22.713Z,62.90
2018-12-16T15:20:51.561Z,67.77
2018-12-16T15:23:20.064Z,65.33
2018-12-16T15:26:50.149Z,71.07
2018-12-16T15:29:20.862Z,71.43
2018-12-16T15:32:35.441Z,71.83
2018-12-16T15:35:06.157Z,83.37
2018-12-16T15:37:36.382Z,76.27
2018-12-16T15:40:06.920Z,72.90
2018-12-16T15:42:36.840Z,66.27
2018-12-16T15:45:12.188Z,69.13
2018-12-16T15:47:49.881Z,62.63
2018-12-16T15:50:25.147Z,67.10
2018-12-16T15:53:01.579Z,64.87
2018-12-16T15:55:42.147Z,68.77
2018-12-16T15:58:12.448Z,60.90
2018-12-16T16:00:46.768Z,58.53
2018-12-16T16:03:21.908Z,59.47
2018-12-16T16:05:52.251Z,58.70
2018-12-16T16:08:22.463Z,61.20
2018-12-16T16:10:53.289Z,57.17
2018-12-16T16:13:24.960Z,50.97
2018-12-16T16:15:55.997Z,55.47
2018-12-16T16:18:27.331Z,59.93
2018-12-16T16:20:58.779Z,56.87
2018-12-16T16:23:29.105Z,47.63
2018-12-16T16:25:59.841Z,48.10
2018-12-16T16:28:30.267Z,48.33
2018-12-16T16:31:00.383Z,48.03
2018-12-16T16:33:31.448Z,50.27
2018-12-16T16:36:02.467Z,47.83
2018-12-16T16:38:32.889Z,48.03
2018-12-16T16:41:02.821Z,49.70
2018-12-16T16:43:36.826Z,49.87
2018-12-16T16:46:08.580Z,51.77
2018-12-16T16:48:39.104Z,47.50
2018-12-16T16:51:09.117Z,50.17
2018-12-16T16:53:39.128Z,51.57
2018-12-16T16:56:08.946Z,55.40
2018-12-16T16:58:39.370Z,54.87
2018-12-16T17:01:10.207Z,49.23
2018-12-16T17:03:40.323Z,48.73
2018-12-16T17:06:11.058Z,53.53
2018-12-16T17:08:41.177Z,56.53
2018-12-16T17:11:12.446Z,54.37
2018-12-16T17:13:42.606Z,52.07
2018-12-16T17:16:15.829Z,49.80
2018-12-16T17:18:46.380Z,51.33
2018-12-16T17:21:17.808Z,47.63
2018-12-16T17:23:48.576Z,51.53
2018-12-16T17:26:22.247Z,46.77
2018-12-16T17:28:53.398Z,47.37
2018-12-16T17:31:25.772Z,45.03
2018-12-16T17:33:59.567Z,45.23
2018-12-16T17:36:32.168Z,43.07
2018-12-16T17:39:03.798Z,50.60
2018-12-16T17:41:36.786Z,43.70
2018-12-16T17:44:07.517Z,47.00
2018-12-16T17:46:40.912Z,48.83
2018-12-16T17:49:17.022Z,46.17
2018-12-16T17:51:48.938Z,48.83
2018-12-16T17:54:23.358Z,49.33
2018-12-16T17:56:55.263Z,51.70
2018-12-16T17:59:26.996Z,49.70
2018-12-16T18:01:58.847Z,53.03
2018-12-16T18:04:34.188Z,50.63
2018-12-16T18:07:05.107Z,46.07
2018-12-16T18:09:39.454Z,44.73
2018-12-16T18:12:17.548Z,41.97
2018-12-16T18:14:48.780Z,45.67
2018-12-16T18:17:21.869Z,41.77
2018-12-16T18:19:54.660Z,42.57
2018-12-16T18:22:27.128Z,43.30
2018-12-16T18:24:58.479Z,41.93
2018-12-16T18:27:36.701Z,42.87
2018-12-16T18:30:08.848Z,43.20
2018-12-16T18:32:42.762Z,42.67
2018-12-16T18:35:15.649Z,42.40
2018-12-16T18:37:48.538Z,40.83
2018-12-16T18:40:21.096Z,45.70
2018-12-16T18:42:51.940Z,44.27
2018-12-16T18:45:28.420Z,39.70
2018-12-16T18:48:00.564Z,41.00
2018-12-16T18:50:31.619Z,38.10
2018-12-16T18:53:04.292Z,38.87
2018-12-16T18:55:36.968Z,41.03
2018-12-16T18:58:11.908Z,42.90
2018-12-16T19:00:44.588Z,44.43
2018-12-16T19:03:18.483Z,44.87
2018-12-16T19:05:53.420Z,45.03
2018-12-16T19:08:30.048Z,50.43
2018-12-16T19:11:03.378Z,51.47
2018-12-16T19:13:43.539Z,51.43
2018-12-16T19:16:28.198Z,48.10
2018-12-16T19:55:51.271Z,71.40
2018-12-16T19:58:23.347Z,65.87
2018-12-16T20:00:55.921Z,63.40
2018-12-16T20:03:32.597Z,65.60
2018-12-16T20:06:08.027Z,66.00
2018-12-16T20:08:41.959Z,60.23
2018-12-16T20:11:13.707Z,67.30
2018-12-16T20:13:48.559Z,62.17
2018-12-16T20:16:19.889Z,62.77
2018-12-16T20:18:51.233Z,58.13
2018-12-16T20:21:21.861Z,61.30
2018-12-16T20:23:51.684Z,54.13
2018-12-16T20:26:26.395Z,55.93
2018-12-16T20:28:57.951Z,57.33
2018-12-16T20:31:28.689Z,60.53
2018-12-16T20:34:04.128Z,50.33
2018-12-16T20:36:37.001Z,60.30
2018-12-16T20:39:11.027Z,56.53
2018-12-16T20:41:41.546Z,55.10
2018-12-16T20:44:11.778Z,62.50
2018-12-16T20:46:42.091Z,52.97
2018-12-16T20:49:11.493Z,55.87
2018-12-16T20:51:42.431Z,55.93
2018-12-16T20:54:11.935Z,59.93
2018-12-16T20:56:41.452Z,52.60
2018-12-16T20:59:11.977Z,58.70
2018-12-16T21:01:42.998Z,56.00
2018-12-16T21:04:12.845Z,56.20
2018-12-16T21:06:42.848Z,61.67
2018-12-16T21:09:12.341Z,58.50
2018-12-16T21:11:47.171Z,59.93
2018-12-16T21:14:21.798Z,65.90
2018-12-16T21:16:55.804Z,53.57
2018-12-16T21:19:29.201Z,58.97
2018-12-16T21:21:58.910Z,60.70
2018-12-16T21:24:32.715Z,62.20
2018-12-16T21:27:09.184Z,60.03
2018-12-16T21:29:38.893Z,57.83
2018-12-16T21:32:11.368Z,60.50
2018-12-16T21:34:43.228Z,60.07
2018-12-16T21:37:13.342Z,59.87
2018-12-16T21:39:43.261Z,60.10
2018-12-16T21:42:14.084Z,54.10
2018-12-16T21:44:43.702Z,54.60
2018-12-16T21:47:13.102Z,56.00
2018-12-16T21:49:43.326Z,55.77
2018-12-16T21:52:13.142Z,58.87
2018-12-16T21:54:44.014Z,64.40
2018-12-16T21:57:13.902Z,59.03
2018-12-16T21:59:44.204Z,56.80
2018-12-16T22:02:14.333Z,66.00
2018-12-16T22:04:45.010Z,60.83
2018-12-16T22:07:17.953Z,69.30
2018-12-16T22:09:47.858Z,60.57
2018-12-16T22:12:17.874Z,63.17
2018-12-16T22:14:47.582Z,62.90
2018-12-16T22:17:17.814Z,60.27
2018-12-16T22:19:48.334Z,61.07
2018-12-16T22:22:18.367Z,63.37
2018-12-16T22:24:47.973Z,63.90
2018-12-16T22:27:18.083Z,58.63
2018-12-16T22:29:47.884Z,62.33
2018-12-16T22:32:17.709Z,62.30
2018-12-16T22:34:47.610Z,59.47
2018-12-16T22:37:17.624Z,60.40
2018-12-16T22:39:47.950Z,58.23
2018-12-16T22:42:17.457Z,54.37
2018-12-16T22:44:47.382Z,60.70
2018-12-16T22:47:17.385Z,55.50
2018-12-16T22:49:46.890Z,57.63
2018-12-16T22:52:16.302Z,55.20
2018-12-16T22:54:45.702Z,57.43
2018-12-16T22:57:15.207Z,54.00
2018-12-16T22:59:45.008Z,60.70
2018-12-16T23:02:14.729Z,60.33
2018-12-16T23:04:44.432Z,55.40
2018-12-16T23:07:14.006Z,58.33
2018-12-16T23:09:43.978Z,56.37
2018-12-16T23:12:13.876Z,52.23
2018-12-16T23:14:43.471Z,64.73
2018-12-16T23:17:12.991Z,56.57
2018-12-16T23:19:44.747Z,56.53
2018-12-16T23:22:14.465Z,58.10
2018-12-16T23:25:00.332Z,59.13
2018-12-16T23:27:38.336Z,64.77
2018-12-16T23:30:14.002Z,58.10
2018-12-16T23:32:47.705Z,55.07
